Time;durP1;ratioP1;P1;durP2;ratioP2;P2;SDS_P1;SDS_P2;PMS_P1;PMS_P2;Temp;Humidity;BMP_temperature;BMP_pressure;BME280_temperature;BME280_humidity;BME280_pressure;Samples;Min_cycle;Max_cycle;Signal;HPM_P1;HPM_P2
2022/06/26 00:02:18;;;;;;;1.60;1.50;;;;;;;19.92;100.00;100072.88;4392940;32;20536;-74
2022/06/26 00:04:46;;;;;;;2.00;1.80;;;;;;;19.78;100.00;100079.84;4393118;32;20120;-74
2022/06/26 00:07:13;;;;;;;1.75;1.65;;;;;;;19.74;100.00;100086.31;4392864;32;20086;-74
2022/06/26 00:09:40;;;;;;;1.65;1.55;;;;;;;19.68;100.00;100085.78;4392851;32;20136;-74
2022/06/26 00:12:08;;;;;;;2.20;1.98;;;;;;;19.64;100.00;100100.25;4392615;32;20585;-74
2022/06/26 00:14:36;;;;;;;1.60;1.50;;;;;;;19.52;100.00;100093.75;4392615;32;20102;-74
2022/06/26 00:17:03;;;;;;;2.03;1.90;;;;;;;19.50;100.00;100098.28;4392804;32;20081;-74
2022/06/26 00:19:31;;;;;;;2.87;2.00;;;;;;;19.39;100.00;100103.34;4392691;32;20566;-74
2022/06/26 00:21:58;;;;;;;2.55;1.60;;;;;;;19.34;100.00;100111.63;4392724;32;20406;-74
2022/06/26 00:24:25;;;;;;;3.65;1.87;;;;;;;19.46;100.00;100107.44;4392724;32;20110;-74
2022/06/26 00:26:52;;;;;;;2.15;2.05;;;;;;;19.50;100.00;100107.16;4392740;32;20114;-74
2022/06/26 00:29:19;;;;;;;2.10;2.00;;;;;;;19.47;100.00;100119.84;4392617;32;20105;-74
2022/06/26 00:31:46;;;;;;;2.33;1.90;;;;;;;19.54;100.00;100114.09;4392615;32;20098;-74
2022/06/26 00:34:14;;;;;;;2.97;2.10;;;;;;;19.59;100.00;100108.50;4392533;32;20106;-74
2022/06/26 00:36:41;;;;;;;2.37;2.08;;;;;;;19.57;100.00;100105.03;4392525;32;20407;-74
2022/06/26 00:39:08;;;;;;;3.12;1.90;;;;;;;19.49;100.00;100112.63;4392559;32;20090;-74
2022/06/26 00:41:38;;;;;;;5.43;2.30;;;;;;;19.37;100.00;100108.78;4392470;32;20227;-74
2022/06/26 00:44:20;;;;;;;2.40;2.10;;;;;;;19.31;100.00;100107.28;4392414;32;20127;-74
2022/06/26 00:46:48;;;;;;;2.78;2.05;;;;;;;19.29;100.00;100106.53;4391510;32;20083;-74
2022/06/26 00:49:16;;;;;;;8.55;2.08;;;;;;;18.78;100.00;100104.72;4392494;32;20112;-74
2022/06/26 00:51:47;;;;;;;2.03;1.80;;;;;;;18.68;100.00;100104.25;4392358;32;20438;-74
2022/06/26 00:54:15;;;;;;;3.45;1.80;;;;;;;18.66;100.00;100105.28;4392419;32;20155;-74
2022/06/26 00:56:42;;;;;;;2.72;1.90;;;;;;;18.84;100.00;100120.44;4392402;32;20086;-74
2022/06/26 00:59:10;;;;;;;3.10;2.03;;;;;;;18.37;100.00;100121.78;4392338;32;20450;-74
2022/06/26 01:01:38;;;;;;;2.58;2.37;;;;;;;18.33;100.00;100122.00;4392133;32;20114;-74
2022/06/26 01:04:05;;;;;;;3.22;2.30;;;;;;;18.18;100.00;100125.41;4392137;32;20144;-74
2022/06/26 01:06:35;;;;;;;2.83;2.35;;;;;;;18.17;100.00;100124.53;4392231;32;20102;-74
2022/06/26 01:09:03;;;;;;;2.53;2.33;;;;;;;18.20;100.00;100126.19;4392373;32;20446;-74
2022/06/26 01:11:31;;;;;;;6.40;2.62;;;;;;;18.20;100.00;100119.06;4392254;32;20120;-74
2022/06/26 01:13:58;;;;;;;2.58;2.33;;;;;;;18.47;100.00;100132.88;4392000;32;20106;-74
2022/06/26 01:16:27;;;;;;;3.58;2.55;;;;;;;18.55;100.00;100141.38;4392186;32;20100;-74
2022/06/26 01:18:56;;;;;;;7.32;3.30;;;;;;;18.51;100.00;100145.09;4377900;32;20086;-74
2022/06/26 01:21:24;;;;;;;21.33;2.70;;;;;;;18.57;100.00;100138.63;4392006;32;20217;-74
2022/06/26 01:23:52;;;;;;;4.05;2.62;;;;;;;18.43;100.00;100133.97;4392021;32;20128;-74
2022/06/26 01:26:21;;;;;;;2.80;2.60;;;;;;;18.52;100.00;100130.00;4391997;32;20343;-74
2022/06/26 01:28:49;;;;;;;3.40;3.10;;;;;;;18.51;100.00;100137.09;4391871;32;20105;-74
2022/06/26 01:31:19;;;;;;;3.87;2.70;;;;;;;18.40;100.00;100139.44;4392186;32;20098;-74
2022/06/26 01:33:47;;;;;;;3.50;2.70;;;;;;;18.31;100.00;100142.56;4391842;32;20540;-74
2022/06/26 01:36:14;;;;;;;2.92;2.70;;;;;;;18.31;100.00;100137.22;4392004;32;20446;-74
2022/06/26 01:38:43;;;;;;;2.78;2.42;;;;;;;18.35;100.00;100138.81;4391912;32;20207;-74
2022/06/26 01:41:10;;;;;;;5.72;2.90;;;;;;;18.40;100.00;100137.62;4391672;32;20527;-74
2022/06/26 01:43:38;;;;;;;2.72;2.62;;;;;;;18.38;100.00;100131.53;4391925;32;20209;-74
2022/06/26 01:46:07;;;;;;;3.92;2.50;;;;;;;18.40;100.00;100134.09;4391843;32;20112;-74
2022/06/26 01:48:37;;;;;;;3.78;2.87;;;;;;;18.35;100.00;100129.00;4391741;32;20119;-73
2022/06/26 01:51:06;;;;;;;3.15;2.87;;;;;;;18.40;100.00;100126.09;4391839;32;20151;-74
2022/06/26 01:53:34;;;;;;;2.97;2.67;;;;;;;18.21;100.00;100117.25;4391826;32;20136;-74
2022/06/26 01:56:03;;;;;;;4.97;2.70;;;;;;;18.18;100.00;100120.94;4377463;32;20091;-74
2022/06/26 01:58:32;;;;;;;3.92;2.87;;;;;;;18.22;100.00;100117.19;4392504;32;20529;-74
2022/06/26 02:01:01;;;;;;;6.32;2.70;;;;;;;18.20;100.00;100128.84;4393729;32;20192;-74
2022/06/26 02:03:28;;;;;;;7.18;2.58;;;;;;;18.19;100.00;100135.13;4393874;32;20643;-74
2022/06/26 02:05:56;;;;;;;2.10;2.00;;;;;;;18.20;100.00;100139.50;4393652;32;20112;-74
2022/06/26 02:08:23;;;;;;;3.30;2.40;;;;;;;18.19;100.00;100138.66;4393749;32;20125;-74
2022/06/26 02:13:37;;;;;;;3.28;2.25;;;;;;;18.16;100.00;100141.47;4393763;32;20110;-74
2022/06/26 02:16:10;;;;;;;2.97;2.78;;;;;;;18.12;100.00;100146.06;4393735;32;20094;-74
2022/06/26 02:18:42;;;;;;;3.00;2.42;;;;;;;18.11;100.00;100151.50;4393624;32;20414;-74
2022/06/26 02:21:12;;;;;;;2.60;2.40;;;;;;;18.07;100.00;100148.09;4393520;32;20090;-74
2022/06/26 02:23:41;;;;;;;2.40;2.30;;;;;;;18.15;100.00;100147.75;4393586;32;20114;-74
2022/06/26 02:26:09;;;;;;;4.80;2.15;;;;;;;18.22;100.00;100141.19;4393529;32;20113;-74
2022/06/26 02:28:39;;;;;;;2.78;2.30;;;;;;;18.20;100.00;100152.84;4393466;32;20499;-74
2022/06/26 02:31:06;;;;;;;7.15;2.62;;;;;;;18.19;100.00;100145.78;4393486;32;20098;-74
2022/06/26 02:33:34;;;;;;;4.75;2.65;;;;;;;18.24;100.00;100144.66;4379333;32;20180;-74
2022/06/26 02:36:04;;;;;;;4.65;2.60;;;;;;;18.25;100.00;100145.50;4393474;32;20090;-74
2022/06/26 02:38:32;;;;;;;2.30;2.20;;;;;;;18.06;100.00;100148.19;4393422;32;20376;-74
2022/06/26 02:40:59;;;;;;;2.35;2.20;;;;;;;18.03;100.00;100143.00;4393408;32;20098;-74
2022/06/26 02:43:27;;;;;;;2.58;2.30;;;;;;;18.03;100.00;100151.84;4393584;32;20128;-74
2022/06/26 02:45:56;;;;;;;3.22;2.12;;;;;;;18.15;100.00;100151.25;4393703;32;20090;-74
2022/06/26 02:48:24;;;;;;;2.67;2.47;;;;;;;18.08;100.00;100155.16;4393258;32;20598;-74
2022/06/26 02:50:52;;;;;;;2.60;2.40;;;;;;;18.06;100.00;100162.37;4393344;32;20097;-74
2022/06/26 02:53:19;;;;;;;10.38;2.37;;;;;;;18.07;100.00;100157.91;4393313;32;20101;-74
2022/06/26 02:55:47;;;;;;;2.92;2.60;;;;;;;18.11;100.00;100168.34;4393292;32;20106;-74
2022/06/26 02:58:14;;;;;;;3.22;2.15;;;;;;;18.09;100.00;100169.34;4393564;32;20513;-74
2022/06/26 03:00:42;;;;;;;3.55;2.33;;;;;;;18.12;100.00;100170.06;4393204;32;20102;-74
2022/06/26 03:03:10;;;;;;;3.10;2.22;;;;;;;18.17;100.00;100177.03;4379442;32;20106;-74
2022/06/26 03:05:38;;;;;;;2.55;2.35;;;;;;;18.37;100.00;100191.16;4393191;32;20430;-74
2022/06/26 03:08:05;;;;;;;3.85;2.33;;;;;;;18.54;100.00;100185.00;4393192;32;20163;-74
2022/06/26 03:10:32;;;;;;;2.78;2.50;;;;;;;18.56;100.00;100191.12;4392407;32;20247;-74
2022/06/26 03:13:01;;;;;;;2.45;2.28;;;;;;;18.64;100.00;100193.44;4393380;32;20109;-74
2022/06/26 03:15:28;;;;;;;2.58;2.47;;;;;;;18.59;100.00;100188.31;4393362;32;20371;-74
2022/06/26 03:17:56;;;;;;;2.40;2.30;;;;;;;18.52;100.00;100191.38;4393337;32;20429;-74
2022/06/26 03:20:26;;;;;;;2.67;2.42;;;;;;;18.44;100.00;100199.69;4393008;32;20163;-74
2022/06/26 03:22:53;;;;;;;5.20;2.72;;;;;;;18.43;100.00;100203.31;4393336;32;20517;-74
2022/06/26 03:25:20;;;;;;;4.05;2.42;;;;;;;18.39;100.00;100199.94;4393348;32;20089;-74
2022/06/26 03:27:50;;;;;;;4.30;2.60;;;;;;;18.38;100.00;100203.53;4393435;32;20148;-74
2022/06/26 03:30:18;;;;;;;5.12;3.10;;;;;;;18.40;100.00;100206.13;4393054;32;20493;-74
2022/06/26 03:32:46;;;;;;;7.55;2.65;;;;;;;18.41;100.00;100207.88;4393188;32;20102;-74
2022/06/26 03:35:14;;;;;;;3.20;3.00;;;;;;;18.31;100.00;100215.44;4393064;32;20094;-74
2022/06/26 03:37:42;;;;;;;3.95;2.70;;;;;;;18.62;100.00;100211.31;4393033;32;20101;-74
2022/06/26 03:40:10;;;;;;;2.97;2.78;;;;;;;18.52;100.00;100208.22;4392960;32;20098;-74
2022/06/26 03:42:39;;;;;;;2.50;2.30;;;;;;;18.60;100.00;100207.88;4393269;32;20106;-74
2022/06/26 03:45:07;;;;;;;3.20;3.00;;;;;;;18.60;100.00;100205.19;4392992;32;20082;-74
2022/06/26 03:47:34;;;;;;;2.67;2.42;;;;;;;18.64;100.00;100204.09;4392963;32;20513;-74
2022/06/26 03:50:03;;;;;;;2.97;2.78;;;;;;;18.63;100.00;100200.56;4393060;32;20121;-74
2022/06/26 03:52:30;;;;;;;3.28;2.87;;;;;;;18.80;100.00;100209.63;4393125;32;20482;-74
2022/06/26 03:54:58;;;;;;;3.20;3.00;;;;;;;18.92;100.00;100202.78;4392939;32;20193;-74
2022/06/26 03:57:25;;;;;;;7.50;2.50;;;;;;;19.14;100.00;100216.81;4393141;32;20171;-74
2022/06/26 03:59:53;;;;;;;4.53;2.53;;;;;;;19.43;100.00;100201.97;4393011;32;20149;-74
2022/06/26 04:02:21;;;;;;;2.60;2.50;;;;;;;19.62;100.00;100203.72;4393181;32;20132;-74
2022/06/26 04:04:49;;;;;;;2.90;2.70;;;;;;;19.59;100.00;100202.91;4392989;32;20120;-74
2022/06/26 04:07:16;;;;;;;2.95;2.72;;;;;;;19.69;100.00;100200.66;4392841;32;20085;-74
2022/06/26 04:09:44;;;;;;;5.25;2.72;;;;;;;19.83;100.00;100205.28;4392981;32;20171;-74
2022/06/26 04:12:17;;;;;;;5.15;3.70;;;;;;;19.92;100.00;100202.09;4392892;32;20128;-74
2022/06/26 04:14:46;;;;;;;11.00;6.50;;;;;;;20.10;100.00;100204.75;4392895;32;20108;-74
2022/06/26 04:17:15;;;;;;;12.73;6.28;;;;;;;20.13;100.00;100209.94;4393041;32;20429;-74
2022/06/26 04:19:49;;;;;;;8.48;5.12;;;;;;;20.30;100.00;100223.25;4392810;32;20097;-74
2022/06/26 04:22:17;;;;;;;5.47;4.28;;;;;;;20.37;100.00;100219.28;4392439;32;20164;-74
2022/06/26 04:24:44;;;;;;;4.37;3.30;;;;;;;20.48;100.00;100224.91;4392785;32;20090;-74
2022/06/26 04:27:11;;;;;;;4.57;2.62;;;;;;;20.68;100.00;100215.81;4392717;32;20105;-74
2022/06/26 04:29:40;;;;;;;3.92;2.70;;;;;;;20.87;100.00;100212.94;4392813;32;20122;-74
2022/06/26 04:32:09;;;;;;;2.75;2.50;;;;;;;21.01;100.00;100221.03;4392770;32;20098;-74
2022/06/26 04:34:37;;;;;;;3.35;2.45;;;;;;;21.13;100.00;100219.47;4392895;32;20102;-74
2022/06/26 04:37:05;;;;;;;2.83;2.62;;;;;;;21.18;100.00;100216.53;4392714;32;20097;-74
2022/06/26 04:39:32;;;;;;;2.50;2.40;;;;;;;21.15;100.00;100214.88;4392585;32;20605;-74
2022/06/26 04:42:01;;;;;;;2.58;1.87;;;;;;;21.18;100.00;100222.75;4392418;32;20094;-74
2022/06/26 04:44:29;;;;;;;2.40;1.70;;;;;;;21.29;100.00;100224.78;4392470;32;20087;-74
2022/06/26 04:46:56;;;;;;;1.73;1.70;;;;;;;21.42;100.00;100224.97;4392660;32;20484;-74
2022/06/26 04:49:25;;;;;;;1.85;1.75;;;;;;;21.61;100.00;100227.41;4392574;32;20164;-74
2022/06/26 04:51:53;;;;;;;1.60;1.50;;;;;;;21.80;100.00;100225.34;4392495;32;20221;-74
2022/06/26 04:54:20;;;;;;;1.65;1.50;;;;;;;21.90;100.00;100220.25;4392572;32;20094;-74
2022/06/26 04:56:48;;;;;;;2.03;1.92;;;;;;;22.05;100.00;100219.34;4392307;32;20116;-74
2022/06/26 04:59:16;;;;;;;2.42;1.48;;;;;;;22.29;100.00;100225.00;4378011;32;20133;-74
2022/06/26 05:01:43;;;;;;;1.77;1.62;;;;;;;22.40;100.00;100224.31;4392075;32;20114;-74
2022/06/26 05:04:11;;;;;;;1.60;1.50;;;;;;;22.47;100.00;100225.66;4392245;32;20268;-74
2022/06/26 05:06:39;;;;;;;2.35;1.45;;;;;;;22.63;100.00;100218.34;4392166;32;20181;-74
2022/06/26 05:09:09;;;;;;;8.80;1.85;;;;;;;22.73;100.00;100223.13;4392190;32;20101;-74
2022/06/26 05:11:37;;;;;;;3.60;1.60;;;;;;;22.82;100.00;100217.16;4392345;32;20106;-74
2022/06/26 05:14:04;;;;;;;1.48;1.35;;;;;;;22.79;100.00;100218.22;4392218;32;20116;-74
2022/06/26 05:16:32;;;;;;;1.95;1.35;;;;;;;22.93;100.00;100221.84;4392316;32;20413;-74
2022/06/26 05:19:00;;;;;;;1.62;1.52;;;;;;;22.99;100.00;100227.69;4392212;32;20093;-74
2022/06/26 05:21:29;;;;;;;1.25;1.25;;;;;;;23.02;100.00;100226.63;4392139;32;20697;-74
2022/06/26 05:23:56;;;;;;;2.60;1.60;;;;;;;23.22;100.00;100222.63;4392085;32;20093;-74
2022/06/26 05:26:23;;;;;;;1.27;1.20;;;;;;;23.27;100.00;100225.84;4377847;32;20560;-74
2022/06/26 05:28:51;;;;;;;1.85;1.50;;;;;;;23.33;100.00;100225.44;4392126;32;20165;-74
2022/06/26 05:31:18;;;;;;;2.70;1.48;;;;;;;23.32;100.00;100224.59;4391833;32;20167;-74
2022/06/26 05:33:47;;;;;;;1.67;1.58;;;;;;;23.49;100.00;100226.13;4392525;32;20090;-74
2022/06/26 05:36:15;;;;;;;1.67;1.50;;;;;;;23.48;100.00;100221.72;4394102;32;20085;-74
2022/06/26 05:38:43;;;;;;;1.10;1.10;;;;;;;23.54;100.00;100224.00;4393897;32;20152;-74
2022/06/26 05:41:10;;;;;;;1.35;1.25;;;;;;;23.62;100.00;100234.22;4393652;32;20114;-74
2022/06/26 05:43:38;;;;;;;1.92;1.70;;;;;;;23.62;100.00;100234.22;4393992;32;20093;-74
2022/06/26 05:46:07;;;;;;;1.65;1.58;;;;;;;23.65;100.00;100227.78;4379658;32;20124;-74
2022/06/26 05:48:34;;;;;;;1.67;1.55;;;;;;;23.62;100.00;100239.59;4393741;32;20136;-74
2022/06/26 05:51:02;;;;;;;1.95;1.62;;;;;;;23.69;100.00;100240.94;4393766;32;20098;-74
2022/06/26 05:53:30;;;;;;;1.48;1.37;;;;;;;23.65;100.00;100234.00;4393920;32;20485;-74
2022/06/26 05:55:58;;;;;;;1.70;1.60;;;;;;;23.70;100.00;100242.66;4393722;32;20123;-74
2022/06/26 05:58:29;;;;;;;3.15;1.52;;;;;;;23.76;100.00;100238.69;4393655;32;20121;-74
2022/06/26 06:00:57;;;;;;;1.62;1.50;;;;;;;23.81;100.00;100237.37;4393688;32;20430;-74
2022/06/26 06:03:24;;;;;;;2.15;1.52;;;;;;;23.94;100.00;100231.16;4393515;32;20117;-74
2022/06/26 06:05:53;;;;;;;1.87;1.77;;;;;;;23.95;100.00;100238.25;4393815;32;20200;-74
2022/06/26 06:08:21;;;;;;;2.00;1.90;;;;;;;24.02;100.00;100244.94;4393887;32;20144;-74
2022/06/26 06:10:48;;;;;;;3.25;1.80;;;;;;;24.13;100.00;100247.72;4393858;32;20101;-74
2022/06/26 06:13:15;;;;;;;1.90;1.60;;;;;;;24.29;100.00;100243.00;4379524;32;20116;-74
2022/06/26 06:15:42;;;;;;;1.85;1.75;;;;;;;24.38;99.44;100240.59;4393547;32;20081;-74
2022/06/26 06:18:12;;;;;;;1.67;1.62;;;;;;;24.47;97.39;100243.53;4393711;32;20608;-74
2022/06/26 06:20:40;;;;;;;1.70;1.60;;;;;;;24.61;97.09;100247.91;4393465;32;20152;-74
2022/06/26 06:23:25;;;;;;;1.62;1.52;;;;;;;24.65;97.35;100251.25;4393434;32;20454;-74
2022/06/26 06:25:53;;;;;;;2.35;1.30;;;;;;;24.79;96.43;100257.34;4393849;32;20447;-74
2022/06/26 06:28:21;;;;;;;2.35;2.15;;;;;;;24.93;94.45;100258.19;4393532;32;20480;-74
2022/06/26 06:30:48;;;;;;;1.50;1.40;;;;;;;25.15;94.71;100255.62;4393665;32;20124;-74
2022/06/26 06:33:17;;;;;;;1.60;1.55;;;;;;;25.22;92.10;100262.28;4393676;32;20400;-74
2022/06/26 06:35:44;;;;;;;1.58;1.48;;;;;;;25.30;89.31;100266.25;4393423;32;20110;-74
2022/06/26 06:38:12;;;;;;;1.40;1.40;;;;;;;25.43;89.38;100261.66;4393650;32;20167;-74
2022/06/26 06:40:43;;;;;;;1.23;1.23;;;;;;;25.57;88.68;100260.59;4393555;32;20533;-74
2022/06/26 06:43:12;;;;;;;1.50;1.23;;;;;;;25.63;87.69;100269.09;4393426;32;20240;-74
2022/06/26 06:45:45;;;;;;;1.40;1.30;;;;;;;25.71;85.47;100269.34;4393548;32;20140;-74
2022/06/26 06:48:12;;;;;;;1.25;1.05;;;;;;;25.50;84.64;100279.09;4393466;32;20105;-74
2022/06/26 06:50:42;;;;;;;1.40;1.40;;;;;;;25.79;84.59;100276.00;4393328;32;20131;-74
2022/06/26 06:53:09;;;;;;;1.23;1.08;;;;;;;25.88;82.93;100278.03;4393301;32;20078;-74
2022/06/26 06:55:37;;;;;;;1.10;1.10;;;;;;;25.80;83.46;100277.78;4393507;32;20161;-74
2022/06/26 06:58:05;;;;;;;3.22;1.30;;;;;;;26.03;81.51;100276.84;4393329;32;20102;-74
2022/06/26 07:00:33;;;;;;;1.20;1.20;;;;;;;26.07;80.10;100277.44;4393205;32;20498;-74
2022/06/26 07:03:04;;;;;;;1.35;1.20;;;;;;;26.10;80.75;100285.31;4393209;32;20090;-74
2022/06/26 07:05:33;;;;;;;2.17;1.40;;;;;;;26.18;79.45;100285.56;4393158;32;20119;-74
2022/06/26 07:08:01;;;;;;;2.97;1.25;;;;;;;26.17;81.09;100276.62;4393172;32;20547;-74
2022/06/26 07:10:28;;;;;;;1.65;1.25;;;;;;;26.34;80.36;100274.44;4393147;32;20212;-74
2022/06/26 07:12:58;;;;;;;1.12;1.10;;;;;;;26.53;78.96;100279.25;4393080;32;20140;-74
2022/06/26 07:15:26;;;;;;;1.20;1.20;;;;;;;26.59;77.92;100274.22;4393182;32;20116;-74
2022/06/26 07:17:53;;;;;;;1.73;1.17;;;;;;;26.64;77.41;100277.41;4393036;32;20164;-74
2022/06/26 07:20:23;;;;;;;0.90;0.90;;;;;;;26.92;75.84;100273.28;4393327;32;20470;-74
2022/06/26 07:22:52;;;;;;;0.88;0.88;;;;;;;26.88;74.62;100279.94;4393288;32;20086;-74
2022/06/26 07:25:22;;;;;;;1.00;1.00;;;;;;;26.91;72.99;100282.41;4393400;32;20117;-74
2022/06/26 07:27:50;;;;;;;1.40;1.40;;;;;;;26.82;73.63;100276.88;4393478;32;20128;-74
2022/06/26 07:30:19;;;;;;;1.95;1.20;;;;;;;26.83;76.56;100279.47;4393115;32;20110;-74
2022/06/26 07:32:48;;;;;;;1.15;1.10;;;;;;;26.86;78.09;100276.53;4393289;32;20116;-74
2022/06/26 07:35:15;;;;;;;1.30;1.12;;;;;;;26.97;78.36;100278.34;4393358;32;20163;-74
2022/06/26 07:37:42;;;;;;;1.73;1.10;;;;;;;26.88;77.20;100277.25;4393267;32;20147;-74
2022/06/26 07:40:11;;;;;;;1.52;1.40;;;;;;;26.76;72.52;100272.84;4393284;32;20165;-74
2022/06/26 07:42:38;;;;;;;5.28;1.40;;;;;;;26.85;75.55;100263.97;4393345;32;20536;-74
2022/06/26 07:45:07;;;;;;;2.58;0.82;;;;;;;27.27;76.77;100266.00;4393021;32;20116;-74
2022/06/26 07:47:36;;;;;;;2.33;0.90;;;;;;;27.55;67.77;100265.38;4393245;32;20109;-74
2022/06/26 07:50:06;;;;;;;1.00;1.00;;;;;;;27.67;66.45;100263.50;4393100;32;20106;-74
2022/06/26 07:52:33;;;;;;;3.50;1.00;;;;;;;27.75;65.74;100269.16;4392948;32;20124;-74
2022/06/26 07:55:00;;;;;;;6.05;1.20;;;;;;;27.59;65.06;100266.84;4392931;32;20115;-74
2022/06/26 07:57:27;;;;;;;0.95;0.90;;;;;;;27.57;66.04;100266.12;4392469;32;20093;-74
2022/06/26 07:59:55;;;;;;;3.80;0.93;;;;;;;27.60;64.67;100265.00;4393111;32;20515;-74
2022/06/26 08:02:22;;;;;;;0.95;0.95;;;;;;;27.67;64.19;100259.91;4392848;32;20094;-74
2022/06/26 08:04:49;;;;;;;0.80;0.80;;;;;;;27.67;64.31;100266.22;4392980;32;20481;-74
2022/06/26 08:07:17;;;;;;;1.45;0.73;;;;;;;27.63;62.72;100262.91;4392977;32;20482;-74
2022/06/26 08:09:46;;;;;;;0.85;0.85;;;;;;;27.67;62.05;100266.22;4393119;32;20193;-74
2022/06/26 08:12:13;;;;;;;1.15;0.75;;;;;;;27.91;60.63;100271.37;4392871;32;20169;-74
2022/06/26 08:14:41;;;;;;;2.72;1.00;;;;;;;28.11;59.55;100265.09;4392720;32;20156;-74
2022/06/26 08:17:08;;;;;;;2.10;0.90;;;;;;;28.24;58.79;100272.16;4392897;32;20642;-74
2022/06/26 08:19:35;;;;;;;0.85;0.80;;;;;;;28.16;58.91;100263.84;4392797;32;20137;-74
2022/06/26 08:22:03;;;;;;;0.98;0.93;;;;;;;28.03;58.92;100266.78;4392879;32;20078;-74
2022/06/26 08:24:32;;;;;;;0.68;0.68;;;;;;;28.16;59.87;100266.53;4392873;32;20106;-74
2022/06/26 08:27:00;;;;;;;1.08;0.88;;;;;;;28.26;57.12;100270.16;4392861;32;20208;-74
2022/06/26 08:29:28;;;;;;;0.88;0.88;;;;;;;28.47;56.53;100268.31;4392817;32;20106;-74
2022/06/26 08:31:55;;;;;;;2.67;0.82;;;;;;;28.72;56.27;100266.09;4392676;32;20148;-74
2022/06/26 08:34:23;;;;;;;0.70;0.70;;;;;;;28.80;54.52;100271.72;4378418;32;20094;-74
2022/06/26 08:36:52;;;;;;;1.42;0.62;;;;;;;28.74;53.94;100262.28;4392613;32;20172;-74
2022/06/26 08:39:20;;;;;;;1.05;0.90;;;;;;;29.02;53.40;100271.50;4392583;32;20164;-74
2022/06/26 08:41:51;;;;;;;1.10;0.70;;;;;;;28.94;54.91;100268.63;4392449;32;20090;-74
2022/06/26 08:44:18;;;;;;;1.80;0.82;;;;;;;28.96;56.40;100263.03;4392591;32;20494;-74
2022/06/26 08:46:46;;;;;;;2.47;1.00;;;;;;;28.93;54.47;100266.03;4392542;32;20538;-74
2022/06/26 08:49:17;;;;;;;2.05;0.88;;;;;;;29.15;53.61;100264.94;4392570;32;20158;-74
2022/06/26 08:51:47;;;;;;;0.70;0.70;;;;;;;29.51;53.34;100267.00;4392495;32;20078;-74
2022/06/26 08:54:16;;;;;;;2.28;0.85;;;;;;;29.60;52.16;100264.44;4392546;32;20070;-74
2022/06/26 08:56:46;;;;;;;0.82;0.82;;;;;;;29.74;52.96;100261.28;4392420;32;20131;-74
2022/06/26 08:59:16;;;;;;;1.25;0.90;;;;;;;29.90;51.39;100263.44;4392483;32;20172;-74
2022/06/26 09:01:44;;;;;;;1.40;1.20;;;;;;;30.01;50.67;100258.66;4392364;32;20079;-74
2022/06/26 09:04:13;;;;;;;0.95;0.82;;;;;;;30.38;50.78;100266.00;4392231;32;20098;-74
2022/06/26 09:06:42;;;;;;;1.25;1.15;;;;;;;30.48;48.99;100263.28;4392235;32;20093;-74
2022/06/26 09:09:17;;;;;;;2.25;0.80;;;;;;;30.31;48.88;100258.59;4393405;32;20090;-74
2022/06/26 09:11:45;;;;;;;1.17;0.75;;;;;;;30.37;49.02;100258.03;4394010;32;20107;-74
2022/06/26 09:14:14;;;;;;;1.58;1.00;;;;;;;30.50;48.85;100258.56;4393904;32;20116;-75
2022/06/26 09:16:43;;;;;;;0.90;0.90;;;;;;;30.27;48.71;100255.34;4393955;32;20446;-74
2022/06/26 09:19:16;;;;;;;5.37;1.02;;;;;;;30.49;48.75;100260.38;4393976;32;20122;-74
2022/06/26 09:21:46;;;;;;;2.92;0.90;;;;;;;30.22;49.05;100265.81;4393861;32;20070;-75
2022/06/26 09:24:18;;;;;;;0.85;0.85;;;;;;;30.41;48.67;100257.56;4393912;32;20093;-75
2022/06/26 09:27:10;;;;;;;1.95;0.75;;;;;;;30.64;48.94;100258.06;4393944;32;20220;-75
2022/06/26 09:29:39;;;;;;;0.90;0.90;;;;;;;30.67;47.89;100254.16;4393913;32;20106;-75
2022/06/26 09:32:08;;;;;;;1.10;0.90;;;;;;;30.53;48.15;100258.25;4393879;32;20411;-75
2022/06/26 09:34:36;;;;;;;1.65;0.90;;;;;;;30.88;47.41;100249.34;4393784;32;20167;-74
2022/06/26 09:37:06;;;;;;;0.82;0.80;;;;;;;31.04;46.74;100258.72;4394081;32;20128;-74
2022/06/26 09:39:35;;;;;;;1.80;0.95;;;;;;;30.61;47.80;100257.50;4393997;32;20106;-74
2022/06/26 09:42:18;;;;;;;3.65;1.05;;;;;;;30.72;47.12;100254.56;4393929;32;20164;-74
2022/06/26 09:44:49;;;;;;;1.48;1.02;;;;;;;30.53;47.02;100257.37;4393947;32;20081;-74
2022/06/26 09:47:30;;;;;;;4.87;0.85;;;;;;;30.96;46.93;100259.47;4393796;32;20174;-74
2022/06/26 09:49:59;;;;;;;1.10;1.00;;;;;;;31.27;46.00;100257.22;4393861;32;20156;-74
2022/06/26 09:52:30;;;;;;;1.30;0.98;;;;;;;30.99;46.22;100258.28;4393760;32;20082;-74
2022/06/26 09:55:00;;;;;;;0.80;0.80;;;;;;;31.34;45.52;100255.62;4394021;32;20164;-74
2022/06/26 09:57:28;;;;;;;2.28;0.88;;;;;;;31.42;44.83;100255.72;4393858;32;20414;-74
2022/06/26 09:59:56;;;;;;;3.30;1.10;;;;;;;31.33;45.52;100253.06;4393733;32;20146;-74
2022/06/26 10:08:04;;;;;;;1.12;0.90;;;;;;;32.73;42.44;100259.38;4393563;32;20524;-74
2022/06/26 10:10:33;;;;;;;1.85;0.90;;;;;;;33.06;42.41;100256.78;4393574;32;20098;-74
2022/06/26 10:13:04;;;;;;;0.80;0.80;;;;;;;32.80;42.04;100252.25;4393636;32;20571;-75
2022/06/26 10:15:59;;;;;;;1.15;0.80;;;;;;;32.93;42.71;100248.16;4393577;32;20144;-74
2022/06/26 10:18:36;;;;;;;0.90;0.90;;;;;;;33.09;41.37;100251.00;4393463;32;20469;-82
2022/06/26 10:21:09;;;;;;;1.15;1.10;;;;;;;33.32;40.79;100240.25;4393549;32;20527;-81
2022/06/26 10:23:38;;;;;;;1.05;1.02;;;;;;;33.53;40.63;100243.38;4393724;32;20097;-81
2022/06/26 10:26:17;;;;;;;2.47;0.80;;;;;;;33.75;40.27;100244.59;4393715;32;20082;-81
2022/06/26 10:29:06;;;;;;;7.32;0.80;;;;;;;34.46;38.25;100247.53;4393570;32;20169;-81
2022/06/26 10:31:53;;;;;;;2.65;0.80;;;;;;;34.82;37.95;100241.59;4393633;32;20148;-81
2022/06/26 10:34:23;;;;;;;0.75;0.75;;;;;;;35.12;38.02;100234.41;4393385;32;20728;-81
2022/06/26 10:37:06;;;;;;;1.73;1.02;;;;;;;35.52;37.27;100236.06;4393700;32;20093;-81
2022/06/26 10:39:42;;;;;;;2.05;0.70;;;;;;;35.17;36.58;100232.84;4393611;32;20120;-81
2022/06/26 10:45:30;;;;;;;7.97;0.95;;;;;;;34.84;38.32;100234.91;4393591;32;20464;-81
2022/06/26 10:48:00;;;;;;;9.68;1.27;;;;;;;35.60;36.00;100235.97;4393534;32;20090;-81
2022/06/26 10:50:57;;;;;;;1.83;0.80;;;;;;;36.09;36.04;100240.19;4393692;32;20106;-81
2022/06/26 10:53:29;;;;;;;1.75;1.00;;;;;;;36.13;34.82;100242.34;4393454;32;20144;-81
2022/06/26 10:55:58;;;;;;;1.10;0.93;;;;;;;35.68;35.18;100238.62;4393330;32;20500;-81
2022/06/26 10:58:31;;;;;;;2.42;1.00;;;;;;;34.95;35.80;100236.41;4393344;32;20124;-81
2022/06/26 11:01:01;;;;;;;1.00;0.85;;;;;;;36.03;34.34;100239.03;4393351;32;20155;-81
2022/06/26 11:03:30;;;;;;;0.98;0.80;;;;;;;35.94;33.61;100234.66;4393448;32;20136;-81
2022/06/26 11:06:10;;;;;;;1.33;0.90;;;;;;;36.58;31.85;100231.41;4393298;32;20074;-81
2022/06/26 11:08:42;;;;;;;1.52;1.00;;;;;;;36.80;31.32;100235.06;4393417;32;20086;-81
2022/06/26 11:11:17;;;;;;;2.97;1.00;;;;;;;36.89;31.17;100236.63;4393238;32;20098;-81
2022/06/26 11:13:55;;;;;;;1.87;0.90;;;;;;;36.97;31.17;100241.22;4393294;32;20102;-81
2022/06/26 11:16:31;;;;;;;1.25;0.70;;;;;;;37.32;31.14;100233.97;4393045;32;20349;-81
2022/06/26 11:19:00;;;;;;;6.22;1.05;;;;;;;36.98;30.73;100227.28;4393284;32;20082;-81
2022/06/26 11:21:27;;;;;;;2.62;0.73;;;;;;;35.59;32.31;100231.53;4393271;32;20170;-81
2022/06/26 11:23:55;;;;;;;2.70;0.80;;;;;;;35.34;32.24;100230.87;4393114;32;20102;-81
2022/06/26 11:26:23;;;;;;;1.65;1.00;;;;;;;35.24;32.33;100233.00;4393022;32;20533;-81
2022/06/26 11:28:54;;;;;;;1.70;1.10;;;;;;;36.37;31.70;100243.13;4393232;32;20085;-81
2022/06/26 11:31:25;;;;;;;0.70;0.70;;;;;;;36.90;31.21;100224.63;4378056;32;20125;-81
2022/06/26 11:33:53;;;;;;;1.00;0.90;;;;;;;37.27;30.84;100234.53;4393118;32;20215;-81
2022/06/26 11:36:22;;;;;;;2.33;0.90;;;;;;;40.13;28.04;100234.03;4393245;32;20152;-81
2022/06/26 11:38:53;;;;;;;0.82;0.82;;;;;;;41.04;25.83;100233.13;4393038;32;20120;-81
2022/06/26 11:41:23;;;;;;;1.00;0.90;;;;;;;40.52;25.57;100226.69;4393115;32;20094;-81
2022/06/26 11:43:54;;;;;;;1.40;0.80;;;;;;;42.26;25.11;100224.50;4392977;32;20171;-81